Adams, NE

12:31 PM CDT on August 30, 2016 (GMT -0500)
Woodland Plaza | | Change Station
Active Advisory: Flash Flood Watch

Elev 1283 ft 40.63 °N, 96.63 °W | Updated 7 minutes ago

Overcast
Overcast
73.9 °F
Feels Like 73 °F
N
3.7
Wind Variable Wind from WNW

Today
High -- | Low -- °F
--% Chance of Precip.
Yesterday
High -- | Low -- °F
Precip. -- in
Pressure 30.21 in
Visibility 10.0 miles
Clouds Scattered Clouds 1700 ft
Mostly Cloudy 2600 ft
Overcast 5500 ft
Heat Index 73 °F
Dew Point 69 °F
Humidity 86%
Rainfall 0.05 in
Snow Depth Not available.
6:51 AM 8:00 PM
Waning Crescent, 3% visible
METAR KBIE 301715Z AUTO 02004KT 10SM SCT017 BKN026 OVC055 25/20 A3021 RMK AO2 T02450204
Pressure 30.21 in
Visibility 10.0 miles
Clouds Scattered Clouds 1700 ft
Mostly Cloudy 2600 ft
Overcast 5500 ft
Heat Index 73 °F
Dew Point 69 °F
Humidity 86%
Rainfall 0.05 in
Snow Depth Not available.
6:51 AM 8:00 PM
Waning Crescent, 3% visible
METAR KBIE 301715Z AUTO 02004KT 10SM SCT017 BKN026 OVC055 25/20 A3021 RMK AO2 T02450204

10-Day Weather Forecast

Almanac

Astronomy

Aug. 30, 2016 Rise Set
Actual Time
Civil Twilight
Nautical Twilight
Astronomical Twilight
Moon
Length of Visible Light
Length of Day
Tomorrow will be .
, % of the Moon is Illuminated

Today's Extremes

State Highs State Lows

Community

WunderPhotos

Upload Photos

1,935,853 photos uploaded!

WunderBlog® & News

Nearby

Air Quality

  Air Quality AQ Index Pollutant
Not available.

Snow Depth

Station Depth Elevation

Earthquake Activity

City Distance Mag. Time & Date
Minimum magnitude displayed is 2.5.

Coastal Water Temperatures

Place Temperature

Stations

Nearby Weather Stations

Station Location Temp. Windchill Dew Point Humidity Wind Precip. Elev Updated Type
                   

Watches & Warnings

Flash Flood Watch
Issued: 10:28 AM CDT Aug. 30, 2016 – National Weather Service

... Flash Flood Watch remains in effect until 4 PM CDT this
afternoon...

The Flash Flood Watch continues for

* portions of southwest Iowa and southeast Nebraska... including
the following areas... in southwest Iowa... Fremont... Mills...
Montgomery and Page. In southeast Nebraska... Cass... gage...
Jefferson... Johnson... Lancaster... Nemaha... Otoe... Pawnee...
Richardson and Saline.

* Until 4 PM CDT this afternoon

* periods of showers and isolated thunderstorms are expected into
the afternoon. Locally heavy rain will be possible with some
thunderstorms during this time. Due to recent heavy rains any
additional rainfall could produce some flooding.

Precautionary/preparedness actions...

A Flash Flood Watch means that conditions may develop that lead
to flash flooding. Flash flooding is a very dangerous situation.

You should monitor later forecasts and be prepared to take action
should flash flood warnings be issued.



Fobert